Goulds Mill, New York
Current Conditions -  °F | °C
As of 12:53 PM on Monday 22 Dec 2014 (Local Time) from KRME Reporting Station
Overcast Overcast  
Wind Chill: 29°   Ceiling: 2700
Heat Index: 35°   Visibility: 10mi
Dew Point: 28°   Wind: 7mph
Humidity: 76%   Direction: 110°ESE
Pressure: 30.25"   Gusts: NA
Location:  43.6433°N, 75.3374°W
Report Text: KRME 221753Z 11006KT 10SM OVC027 02/M02 A3025 RMK AO2 SLP246 T00171022 10017 21017 58029
Loading
Personal Weather Stations






























Interactive Weather Map New forecast layout! Learn more

10-Day Weather Forecast

Advertisements
Track Severe Weather on mobile